Terminal Aerodrome Forecast
Issued by NWS

Home | Current Version | Previous Version | Text Only | Print | Product List | Glossary On
Versions: 1 2 3 4 5 6 7 8 9 10 11 12 13 14 15
623
FTUS43 KGRR 271140
TAFJXN
TAF
KJXN 271140Z 2712/2812 22005KT P6SM SCT200
     FM271900 18008KT P6SM VCTS BKN050CB
     FM280400 17007KT P6SM BKN120=

USA.gov is the U.S. government's official web portal to all federal, state and local government web resources and services.